createdAt,value
2023-02-14T00:01:27.837Z,38.45
2023-02-14T00:03:54.697Z,41.63
2023-02-14T00:06:21.185Z,43.75
2023-02-14T00:08:47.608Z,54.38
2023-02-14T00:11:14.992Z,42.83
2023-02-14T00:14:01.503Z,41.05
2023-02-14T00:16:28.018Z,30.83
2023-02-14T00:19:03.429Z,58.17
2023-02-14T00:21:30.881Z,28.50
2023-02-14T00:23:57.270Z,69.20
2023-02-14T00:26:23.767Z,56.50
2023-02-14T00:28:50.408Z,50.47
2023-02-14T00:31:16.988Z,34.72
2023-02-14T00:33:43.554Z,51.17
2023-02-14T00:36:10.632Z,37.67
2023-02-14T00:38:37.114Z,35.60
2023-02-14T00:41:03.728Z,58.85
2023-02-14T00:43:30.151Z,32.78
2023-02-14T00:49:10.363Z,62.83
2023-02-14T00:51:37.797Z,71.13
2023-02-14T00:54:04.356Z,46.88
2023-02-14T00:56:31.258Z,39.55
2023-02-14T00:58:57.721Z,67.82
2023-02-14T01:01:24.220Z,44.08
2023-02-14T01:03:50.818Z,52.25
2023-02-14T01:06:18.315Z,72.90
2023-02-14T01:08:44.928Z,60.55
2023-02-14T01:11:12.883Z,46.25
2023-02-14T01:13:39.507Z,62.63
2023-02-14T01:16:07.559Z,44.45
2023-02-14T01:18:34.148Z,60.88
2023-02-14T01:21:33.303Z,60.97
2023-02-14T01:24:04.828Z,65.45
2023-02-14T01:26:31.323Z,43.40
2023-02-14T01:29:00.762Z,42.45
2023-02-14T01:31:30.684Z,60.40
2023-02-14T01:33:57.719Z,38.30
2023-02-14T01:36:24.202Z,69.53
2023-02-14T01:38:51.782Z,84.40
2023-02-14T01:41:18.298Z,42.17
2023-02-14T01:43:56.935Z,59.72
2023-02-14T01:46:24.312Z,69.82
2023-02-14T01:48:50.850Z,57.60
2023-02-14T01:51:18.816Z,67.18
2023-02-14T01:53:45.486Z,53.17
2023-02-14T01:56:14.968Z,30.48
2023-02-14T01:58:45.030Z,58.55
2023-02-14T02:01:16.564Z,39.53
2023-02-14T02:04:03.274Z,60.17
2023-02-14T02:06:31.202Z,50.35
2023-02-14T02:09:02.419Z,54.83
2023-02-14T02:11:29.808Z,33.58
2023-02-14T02:13:56.263Z,51.35
2023-02-14T02:16:31.369Z,43.15
2023-02-14T02:18:57.849Z,57.50
2023-02-14T02:21:30.104Z,36.10
2023-02-14T02:24:01.005Z,47.67
2023-02-14T02:26:46.658Z,48.53
2023-02-14T02:29:22.273Z,51.42
2023-02-14T02:31:54.707Z,51.20
2023-02-14T02:34:33.376Z,46.60
2023-02-14T02:37:02.532Z,38.35
2023-02-14T02:39:32.780Z,50.05
2023-02-14T02:42:05.154Z,47.72
2023-02-14T02:44:40.742Z,43.88
2023-02-14T02:47:27.522Z,46.05
2023-02-14T02:50:12.589Z,54.30
2023-02-14T02:53:01.481Z,65.57
2023-02-14T02:55:53.135Z,46.85
2023-02-14T02:58:21.212Z,58.08
2023-02-14T03:00:49.098Z,90.85
2023-02-14T03:03:34.308Z,44.67
2023-02-14T03:06:01.258Z,41.75
2023-02-14T03:08:27.686Z,46.78
2023-02-14T03:10:54.326Z,44.17
2023-02-14T03:13:23.874Z,49.65
2023-02-14T03:16:02.654Z,59.92
2023-02-14T03:19:07.070Z,55.90
2023-02-14T03:24:00.315Z,62.25
2023-02-14T03:26:42.260Z,38.53
2023-02-14T03:29:15.058Z,46.97
2023-02-14T03:32:00.221Z,45.78
2023-02-14T03:34:31.196Z,54.75
2023-02-14T03:36:57.672Z,46.78
2023-02-14T03:39:29.894Z,60.22
2023-02-14T03:42:18.909Z,71.93
2023-02-14T03:44:47.109Z,60.90
2023-02-14T03:47:17.997Z,64.10
2023-02-14T03:49:46.159Z,48.53
2023-02-14T03:52:14.178Z,59.63
2023-02-14T03:54:40.795Z,86.60
2023-02-14T03:57:20.956Z,50.15
2023-02-14T03:59:48.245Z,54.95
2023-02-14T04:02:17.698Z,42.50
2023-02-14T04:04:45.791Z,54.85
2023-02-14T04:07:13.817Z,50.70
2023-02-14T04:09:40.372Z,47.63
2023-02-14T04:12:07.065Z,41.83
2023-02-14T04:14:33.625Z,72.28
2023-02-14T04:17:18.827Z,36.97
2023-02-14T04:19:45.258Z,54.95
2023-02-14T04:22:11.690Z,33.70
2023-02-14T04:24:38.411Z,82.70
2023-02-14T04:27:11.030Z,55.28
2023-02-14T04:29:38.958Z,38.55
2023-02-14T04:32:06.727Z,44.60
2023-02-14T04:34:33.284Z,55.92
2023-02-14T04:36:59.812Z,58.15
2023-02-14T04:39:26.262Z,60.40
2023-02-14T04:41:52.735Z,66.88
2023-02-14T04:44:19.114Z,46.00
2023-02-14T04:46:45.595Z,63.97
2023-02-14T04:49:12.027Z,74.72
2023-02-14T04:51:38.422Z,59.40
2023-02-14T04:54:04.879Z,82.38
2023-02-14T04:56:31.299Z,59.63
2023-02-14T04:58:57.705Z,55.78
2023-02-14T05:01:24.229Z,62.42
2023-02-14T05:03:50.748Z,55.33
2023-02-14T05:06:17.222Z,56.00
2023-02-14T05:08:43.618Z,71.45
2023-02-14T05:11:10.151Z,53.80
2023-02-14T05:13:36.617Z,64.55
2023-02-14T05:16:03.183Z,52.25
2023-02-14T05:18:29.722Z,75.22
2023-02-14T05:20:56.188Z,68.88
2023-02-14T05:23:22.592Z,49.83
2023-02-14T05:25:49.619Z,84.00
2023-02-14T05:28:16.127Z,85.85
2023-02-14T05:30:42.706Z,69.63
2023-02-14T05:33:09.156Z,49.25
2023-02-14T05:35:35.561Z,60.47
2023-02-14T05:38:02.055Z,49.35
2023-02-14T05:40:28.755Z,54.08
2023-02-14T05:42:55.943Z,76.30
2023-02-14T05:45:22.757Z,54.33
2023-02-14T05:47:49.523Z,71.43
2023-02-14T05:50:16.548Z,72.05
2023-02-14T05:52:43.235Z,64.75
2023-02-14T05:55:10.266Z,52.47
2023-02-14T05:57:36.682Z,82.30
2023-02-14T06:00:05.542Z,65.05
2023-02-14T06:02:38.624Z,101.75
2023-02-14T06:05:05.284Z,71.75
2023-02-14T06:07:31.680Z,43.92
2023-02-14T06:09:58.171Z,61.50
2023-02-14T06:12:24.650Z,62.63
2023-02-14T06:14:51.063Z,61.75
2023-02-14T06:17:17.540Z,52.60
2023-02-14T06:19:43.932Z,66.30
2023-02-14T06:22:10.464Z,54.30
2023-02-14T06:24:37.083Z,69.22
2023-02-14T06:27:03.642Z,66.38
2023-02-14T06:29:30.148Z,41.63
2023-02-14T06:31:56.791Z,57.92
2023-02-14T06:34:23.235Z,67.10
2023-02-14T06:36:49.677Z,59.45
2023-02-14T06:39:16.112Z,45.95
2023-02-14T06:41:42.601Z,58.38
2023-02-14T06:44:10.466Z,49.92
2023-02-14T06:46:37.195Z,70.22
2023-02-14T06:49:03.610Z,92.53
2023-02-14T06:51:30.027Z,68.75
2023-02-14T06:53:56.478Z,78.68
2023-02-14T06:56:22.888Z,40.03
2023-02-14T06:58:49.318Z,51.60
2023-02-14T07:01:15.882Z,49.50
2023-02-14T07:03:42.550Z,88.13
2023-02-14T07:06:08.988Z,47.67
2023-02-14T07:08:35.444Z,59.17
2023-02-14T07:11:02.185Z,65.40
2023-02-14T07:13:28.727Z,48.88
2023-02-14T07:15:55.361Z,49.42
2023-02-14T07:18:21.822Z,62.85
2023-02-14T07:20:49.445Z,69.10
2023-02-14T07:23:15.845Z,60.33
2023-02-14T07:25:42.380Z,64.82
2023-02-14T07:28:08.808Z,63.42
2023-02-14T07:30:35.364Z,54.85
2023-02-14T07:33:01.797Z,61.78
2023-02-14T07:35:31.308Z,54.15
2023-02-14T07:37:57.904Z,38.60
2023-02-14T07:40:25.354Z,65.93
2023-02-14T07:42:55.783Z,85.72
2023-02-14T07:45:23.032Z,49.53
2023-02-14T07:47:50.518Z,52.00
2023-02-14T07:50:17.421Z,53.50
2023-02-14T07:52:44.322Z,57.78
2023-02-14T07:55:11.134Z,63.40
2023-02-14T07:57:37.639Z,76.35
2023-02-14T08:00:05.911Z,62.00
2023-02-14T08:02:38.388Z,70.07
2023-02-14T08:05:04.981Z,66.05
2023-02-14T08:07:31.588Z,57.22
2023-02-14T08:09:58.002Z,62.50
2023-02-14T08:12:42.920Z,65.18
2023-02-14T08:15:28.274Z,62.53
2023-02-14T08:17:55.945Z,62.33
2023-02-14T08:20:22.423Z,47.75
2023-02-14T08:22:48.849Z,57.08
2023-02-14T08:25:15.242Z,39.25
2023-02-14T08:27:41.653Z,65.13
2023-02-14T08:30:08.870Z,60.42
2023-02-14T08:32:35.538Z,46.75
2023-02-14T08:35:02.039Z,34.42
2023-02-14T08:37:28.530Z,55.05
2023-02-14T08:39:55.219Z,48.95
2023-02-14T08:42:21.686Z,51.30
2023-02-14T08:44:48.416Z,71.32
2023-02-14T08:47:14.830Z,49.22
2023-02-14T08:49:41.390Z,54.72
2023-02-14T08:52:07.831Z,62.28
2023-02-14T08:54:34.231Z,62.97
2023-02-14T08:57:01.299Z,43.83
2023-02-14T08:59:27.718Z,59.05
2023-02-14T09:01:54.190Z,47.38
2023-02-14T09:04:20.656Z,44.00
2023-02-14T09:06:47.140Z,63.47
2023-02-14T09:09:13.550Z,43.65
2023-02-14T09:11:40.065Z,49.72
2023-02-14T09:14:06.531Z,64.38
2023-02-14T09:16:33.098Z,43.88
2023-02-14T09:18:59.666Z,52.67
2023-02-14T09:21:27.395Z,47.05
2023-02-14T09:23:54.578Z,64.03
2023-02-14T09:26:21.524Z,47.05
2023-02-14T09:28:48.342Z,67.13
2023-02-14T09:31:19.591Z,68.07
2023-02-14T09:33:46.753Z,47.50
2023-02-14T09:36:31.665Z,44.08
2023-02-14T09:38:58.082Z,56.25
2023-02-14T09:41:30.659Z,48.78
2023-02-14T09:44:07.853Z,28.92
2023-02-14T09:46:39.535Z,64.55
2023-02-14T09:49:08.963Z,62.42
2023-02-14T09:51:46.459Z,57.35
2023-02-14T09:54:14.297Z,57.58
2023-02-14T09:56:50.644Z,56.38
2023-02-14T09:59:24.123Z,44.30
2023-02-14T10:01:58.617Z,43.17
2023-02-14T10:04:28.680Z,48.53
2023-02-14T10:06:55.136Z,63.20
2023-02-14T10:09:28.300Z,37.42
2023-02-14T10:11:55.538Z,71.47
2023-02-14T10:14:25.359Z,55.10
2023-02-14T10:17:02.126Z,61.47
2023-02-14T10:19:31.813Z,58.70
2023-02-14T10:22:01.198Z,39.60
2023-02-14T10:24:29.930Z,50.25
2023-02-14T10:27:01.275Z,52.53
2023-02-14T10:29:28.191Z,48.72
2023-02-14T10:31:59.197Z,44.55
2023-02-14T10:34:30.125Z,37.08
2023-02-14T10:37:16.034Z,46.92
2023-02-14T10:39:57.514Z,58.03
2023-02-14T10:42:23.928Z,37.08
2023-02-14T10:44:50.325Z,73.05
2023-02-14T10:47:22.642Z,49.88
2023-02-14T10:50:03.324Z,43.70
2023-02-14T10:52:38.787Z,39.88
2023-02-14T10:55:30.015Z,46.70
2023-02-14T10:57:58.614Z,33.15
2023-02-14T11:00:37.421Z,38.55
2023-02-14T11:03:06.583Z,40.08
2023-02-14T11:05:38.163Z,41.00
2023-02-14T11:08:14.482Z,43.38
2023-02-14T11:10:43.833Z,63.92
2023-02-14T11:13:26.711Z,61.92
2023-02-14T11:15:54.132Z,56.92
2023-02-14T11:18:22.832Z,50.83
2023-02-14T11:21:02.979Z,51.72
2023-02-14T11:23:32.964Z,44.22
2023-02-14T11:26:00.775Z,41.42
2023-02-14T11:28:27.699Z,38.20
2023-02-14T11:30:54.620Z,70.93
2023-02-14T11:33:35.051Z,47.03
2023-02-14T11:36:03.095Z,51.17
2023-02-14T11:38:31.252Z,48.15
2023-02-14T11:40:59.090Z,34.13
2023-02-14T11:43:37.208Z,63.83
2023-02-14T11:46:16.062Z,49.30
2023-02-14T11:48:55.403Z,84.65
2023-02-14T11:51:26.465Z,39.50
2023-02-14T11:53:57.208Z,65.00
2023-02-14T11:56:23.904Z,39.75
2023-02-14T11:58:53.101Z,53.55
2023-02-14T12:01:22.547Z,60.40
2023-02-14T12:03:49.434Z,72.60
2023-02-14T12:06:30.247Z,42.83
2023-02-14T12:09:15.420Z,67.53
2023-02-14T12:11:53.916Z,54.80
2023-02-14T12:14:22.229Z,47.08
2023-02-14T12:16:57.864Z,57.08
2023-02-14T12:19:44.520Z,49.38
2023-02-14T12:22:16.507Z,52.80
2023-02-14T12:24:49.868Z,93.30
2023-02-14T12:27:23.141Z,67.90
2023-02-14T12:29:52.665Z,52.05
2023-02-14T12:32:26.447Z,41.72
2023-02-14T12:34:56.115Z,55.33
2023-02-14T12:37:22.568Z,68.82
2023-02-14T12:39:49.493Z,65.97
2023-02-14T12:42:45.488Z,43.47
2023-02-14T12:45:21.748Z,48.72
2023-02-14T12:47:58.836Z,60.72
2023-02-14T12:50:25.231Z,36.05
2023-02-14T12:52:57.520Z,55.80
2023-02-14T12:55:36.991Z,37.67
2023-02-14T12:58:14.437Z,53.47
2023-02-14T13:00:59.328Z,73.15
2023-02-14T13:03:38.024Z,66.28
2023-02-14T13:06:23.035Z,58.47
2023-02-14T13:08:49.579Z,74.95
2023-02-14T13:11:34.454Z,45.83
2023-02-14T13:14:11.639Z,53.13
2023-02-14T13:16:44.937Z,60.08
2023-02-14T13:19:13.853Z,55.22
2023-02-14T13:21:41.057Z,85.50
2023-02-14T13:24:14.798Z,45.85
2023-02-14T13:26:43.111Z,71.20
2023-02-14T13:29:11.091Z,66.35
2023-02-14T13:31:38.435Z,62.17
2023-02-14T13:34:13.990Z,63.85
2023-02-14T13:36:40.718Z,92.95
2023-02-14T13:39:07.599Z,40.45
2023-02-14T13:41:34.408Z,58.25
2023-02-14T13:44:05.482Z,38.85
2023-02-14T13:46:31.922Z,54.17
2023-02-14T13:49:02.942Z,53.10
2023-02-14T13:51:49.717Z,41.40
2023-02-14T13:54:29.442Z,41.17
2023-02-14T13:56:56.482Z,71.90
2023-02-14T13:59:25.032Z,67.35
2023-02-14T14:01:51.715Z,59.83
2023-02-14T14:04:31.855Z,53.22
2023-02-14T14:07:04.668Z,70.18
2023-02-14T14:09:43.267Z,48.72
2023-02-14T14:12:27.901Z,44.88
2023-02-14T14:15:06.492Z,56.63
2023-02-14T14:17:33.312Z,38.25
2023-02-14T14:20:01.069Z,59.05
2023-02-14T14:22:28.356Z,52.90
2023-02-14T14:24:56.202Z,63.53
2023-02-14T14:27:24.721Z,52.47
2023-02-14T14:29:53.645Z,87.15
2023-02-14T14:32:26.329Z,71.97
2023-02-14T14:34:55.921Z,49.75
2023-02-14T14:37:24.025Z,47.58
2023-02-14T14:39:55.436Z,56.47
2023-02-14T14:42:23.007Z,51.58
2023-02-14T14:44:54.672Z,58.70
2023-02-14T14:47:24.418Z,50.40
2023-02-14T14:49:57.871Z,68.15
2023-02-14T14:54:50.866Z,99.93
2023-02-14T14:57:18.003Z,77.97
2023-02-14T14:59:45.664Z,55.90
2023-02-14T15:02:27.615Z,50.50
2023-02-14T15:04:54.162Z,48.95
2023-02-14T15:07:28.100Z,74.72
2023-02-14T15:09:54.561Z,69.30
2023-02-14T15:12:41.435Z,52.55
2023-02-14T15:15:10.854Z,75.85
2023-02-14T15:17:38.263Z,63.47
2023-02-14T15:20:07.248Z,65.93
2023-02-14T15:22:45.439Z,72.93
2023-02-14T15:25:22.466Z,74.88
2023-02-14T15:27:49.196Z,113.68
2023-02-14T15:30:18.963Z,82.07
2023-02-14T15:32:46.000Z,98.68
2023-02-14T15:35:14.248Z,304.52
2023-02-14T15:37:40.807Z,119.93
2023-02-14T15:40:08.803Z,79.35
2023-02-14T15:42:40.229Z,131.27
2023-02-14T15:45:26.034Z,84.72
2023-02-14T15:47:54.451Z,86.38
2023-02-14T15:50:24.370Z,93.53
2023-02-14T15:52:52.390Z,117.00
2023-02-14T15:55:19.922Z,97.43
2023-02-14T15:57:51.449Z,135.18
2023-02-14T16:00:21.581Z,118.30
2023-02-14T16:02:53.553Z,101.97
2023-02-14T16:05:24.425Z,97.60
2023-02-14T16:08:03.624Z,90.93
2023-02-14T16:10:39.424Z,99.80
2023-02-14T16:13:27.383Z,102.80
2023-02-14T16:16:01.159Z,122.72
2023-02-14T16:18:40.946Z,93.45
2023-02-14T16:21:24.714Z,97.25
2023-02-14T16:26:17.536Z,102.03
2023-02-14T16:28:44.106Z,110.28
2023-02-14T16:31:13.753Z,89.72
2023-02-14T16:33:40.744Z,94.93
2023-02-14T16:36:12.413Z,86.40
2023-02-14T16:38:43.747Z,100.03
2023-02-14T16:41:15.856Z,110.47
2023-02-14T16:43:42.258Z,138.23
2023-02-14T16:46:15.804Z,112.78
2023-02-14T16:51:15.377Z,119.03
2023-02-14T16:53:42.794Z,124.65
2023-02-14T16:56:13.060Z,100.88
2023-02-14T16:58:39.585Z,108.10
2023-02-14T17:01:06.000Z,98.85
2023-02-14T17:03:32.463Z,97.25
2023-02-14T17:05:59.993Z,102.25
2023-02-14T17:08:26.703Z,115.55
2023-02-14T17:10:53.623Z,122.70
2023-02-14T17:13:21.968Z,103.25
2023-02-14T17:15:48.806Z,140.65
2023-02-14T17:18:16.195Z,116.05
2023-02-14T17:20:42.751Z,102.22
2023-02-14T17:23:09.318Z,98.95
2023-02-14T17:25:35.804Z,106.57
2023-02-14T17:28:02.209Z,93.28
2023-02-14T17:30:28.867Z,103.72
2023-02-14T17:32:55.324Z,102.13
2023-02-14T17:35:21.879Z,84.65
2023-02-14T17:37:48.408Z,86.82
2023-02-14T17:40:15.033Z,104.68
2023-02-14T17:42:41.832Z,131.35
2023-02-14T17:45:08.667Z,86.70
2023-02-14T17:47:35.164Z,121.05
2023-02-14T17:50:03.529Z,118.60
2023-02-14T17:52:30.142Z,109.63
2023-02-14T17:54:56.836Z,124.78
2023-02-14T17:57:23.419Z,98.97
2023-02-14T17:59:51.093Z,109.07
2023-02-14T18:02:17.494Z,120.90
2023-02-14T18:04:43.923Z,126.05
2023-02-14T18:07:10.425Z,125.70
2023-02-14T18:09:36.958Z,119.82
2023-02-14T18:12:04.124Z,110.22
2023-02-14T18:14:31.408Z,182.10
2023-02-14T18:16:57.811Z,141.23
2023-02-14T18:19:24.282Z,100.22
2023-02-14T18:21:50.750Z,143.65
2023-02-14T18:24:17.186Z,120.55
2023-02-14T18:26:43.786Z,126.80
2023-02-14T18:29:10.899Z,117.97
2023-02-14T18:31:38.650Z,132.52
2023-02-14T18:34:05.226Z,121.68
2023-02-14T18:36:32.358Z,126.25
2023-02-14T18:38:58.825Z,160.30
2023-02-14T18:41:26.075Z,124.75
2023-02-14T18:43:52.819Z,124.22
2023-02-14T18:46:23.799Z,143.88
2023-02-14T18:48:50.763Z,149.77
2023-02-14T18:51:21.644Z,128.23
2023-02-14T18:53:48.443Z,156.77
2023-02-14T18:56:16.095Z,148.63
2023-02-14T18:58:43.756Z,161.30
2023-02-14T19:01:14.801Z,167.00
2023-02-14T19:03:41.792Z,147.57
2023-02-14T19:06:08.665Z,157.30
2023-02-14T19:08:36.126Z,174.82
2023-02-14T19:11:02.790Z,136.48
2023-02-14T19:13:29.622Z,139.30
2023-02-14T19:15:56.350Z,173.57
2023-02-14T19:18:25.533Z,155.18
2023-02-14T19:20:52.182Z,127.03
2023-02-14T19:23:19.717Z,156.48
2023-02-14T19:25:46.114Z,170.82
2023-02-14T19:28:12.660Z,152.13
2023-02-14T19:30:39.390Z,160.60
2023-02-14T19:33:06.888Z,143.18
2023-02-14T19:35:33.370Z,166.02
2023-02-14T19:38:03.407Z,160.85
2023-02-14T19:40:30.789Z,153.10
2023-02-14T19:42:57.277Z,191.63
2023-02-14T19:45:23.739Z,145.32
2023-02-14T19:47:50.668Z,147.85
2023-02-14T19:50:17.736Z,191.52
2023-02-14T19:52:44.535Z,227.25
2023-02-14T19:55:22.466Z,182.85
2023-02-14T19:57:49.023Z,205.63
2023-02-14T20:00:16.311Z,152.98
2023-02-14T20:02:48.068Z,161.82
2023-02-14T20:05:15.590Z,156.15
2023-02-14T20:07:43.471Z,178.48
2023-02-14T20:10:13.152Z,226.27
2023-02-14T20:12:39.603Z,188.63
2023-02-14T20:15:06.491Z,177.45
2023-02-14T20:17:33.228Z,170.15
2023-02-14T20:19:59.730Z,262.45
2023-02-14T20:22:26.298Z,144.07
2023-02-14T20:24:52.902Z,178.32
2023-02-14T20:27:19.938Z,209.52
2023-02-14T20:29:46.521Z,200.73
2023-02-14T20:32:15.036Z,187.73
2023-02-14T20:34:42.937Z,208.05
2023-02-14T20:37:11.150Z,203.13
2023-02-14T20:39:37.958Z,207.65
2023-02-14T20:42:04.837Z,213.70
2023-02-14T20:44:31.267Z,217.75
2023-02-14T20:46:57.729Z,211.13
2023-02-14T20:49:24.974Z,185.73
2023-02-14T20:51:51.850Z,190.75
2023-02-14T20:54:22.270Z,159.82
2023-02-14T20:56:48.833Z,199.43
2023-02-14T20:59:15.233Z,182.15
2023-02-14T21:01:41.791Z,165.10
2023-02-14T21:04:08.355Z,199.10
2023-02-14T21:06:35.593Z,182.80
2023-02-14T21:09:02.514Z,183.32
2023-02-14T21:11:28.969Z,168.70
2023-02-14T21:13:58.600Z,172.88
2023-02-14T21:16:26.240Z,184.00
2023-02-14T21:18:59.182Z,242.05
2023-02-14T21:21:25.965Z,163.65
2023-02-14T21:23:52.671Z,188.10
2023-02-14T21:26:20.044Z,158.98
2023-02-14T21:28:46.449Z,173.18
2023-02-14T21:31:14.001Z,159.75
2023-02-14T21:33:40.809Z,192.27
2023-02-14T21:36:11.476Z,158.10
2023-02-14T21:38:38.621Z,179.60
2023-02-14T21:41:06.618Z,188.55
2023-02-14T21:43:34.506Z,145.25
2023-02-14T21:46:04.906Z,158.80
2023-02-14T21:48:50.337Z,143.38
2023-02-14T21:51:17.243Z,173.85
2023-02-14T21:53:43.911Z,173.15
2023-02-14T21:56:11.322Z,161.10
2023-02-14T21:58:38.315Z,166.32
2023-02-14T22:01:05.100Z,175.20
2023-02-14T22:03:32.478Z,151.50
2023-02-14T22:06:05.486Z,156.27
2023-02-14T22:08:32.214Z,169.25
2023-02-14T22:10:59.361Z,153.25
2023-02-14T22:13:26.307Z,165.52
2023-02-14T22:15:52.726Z,183.75
2023-02-14T22:18:19.311Z,169.35
2023-02-14T22:20:46.208Z,197.82
2023-02-14T22:23:15.416Z,176.18
2023-02-14T22:25:42.015Z,188.93
2023-02-14T22:28:08.527Z,180.35
2023-02-14T22:30:35.392Z,171.98
2023-02-14T22:33:01.799Z,138.27
2023-02-14T22:35:28.350Z,158.82
2023-02-14T22:37:54.734Z,148.40
2023-02-14T22:40:21.195Z,166.23
2023-02-14T22:42:47.653Z,183.70
2023-02-14T22:45:14.249Z,149.23
2023-02-14T22:47:40.714Z,159.13
2023-02-14T22:50:07.602Z,153.85
2023-02-14T22:52:34.426Z,206.32
2023-02-14T22:55:00.870Z,159.40
2023-02-14T22:57:27.312Z,161.95
2023-02-14T22:59:53.855Z,221.77
2023-02-14T23:02:20.408Z,176.43
2023-02-14T23:04:46.882Z,209.48
2023-02-14T23:07:13.289Z,231.73
2023-02-14T23:09:39.757Z,202.85
2023-02-14T23:12:26.143Z,204.60
2023-02-14T23:15:11.403Z,216.85
2023-02-14T23:17:56.551Z,208.18
2023-02-14T23:20:42.001Z,192.13
2023-02-14T23:23:08.561Z,194.48
2023-02-14T23:25:34.975Z,183.98
2023-02-14T23:28:01.403Z,227.75
2023-02-14T23:30:27.955Z,198.52
2023-02-14T23:32:54.758Z,200.50
2023-02-14T23:35:21.243Z,196.27
2023-02-14T23:37:47.763Z,218.48
2023-02-14T23:40:14.198Z,161.43
2023-02-14T23:42:40.685Z,172.02
2023-02-14T23:45:26.129Z,173.93
2023-02-14T23:47:52.708Z,202.60
2023-02-14T23:50:19.139Z,198.82
2023-02-14T23:52:45.637Z,202.13
2023-02-14T23:55:12.281Z,155.80
2023-02-14T23:57:38.906Z,183.98
